sensor_id;sensor_type;location;lat;lon;timestamp;P1;durP1;ratioP1;P2;durP2;ratioP2
41925;SDS011;27615;51.826;5.692;2022-09-14T00:01:31;2.15;;;0.63;;
41925;SDS011;27615;51.826;5.692;2022-09-14T00:04:00;2.78;;;1.67;;
41925;SDS011;27615;51.826;5.692;2022-09-14T00:06:29;3.83;;;0.80;;
41925;SDS011;27615;51.826;5.692;2022-09-14T00:08:55;3.25;;;0.50;;
41925;SDS011;27615;51.826;5.692;2022-09-14T00:11:23;2.72;;;0.60;;
41925;SDS011;27615;51.826;5.692;2022-09-14T00:13:51;3.65;;;0.50;;
41925;SDS011;27615;51.826;5.692;2022-09-14T00:16:19;1.40;;;0.45;;
41925;SDS011;27615;51.826;5.692;2022-09-14T00:18:54;2.38;;;0.60;;
41925;SDS011;27615;51.826;5.692;2022-09-14T00:21:27;2.58;;;0.70;;
41925;SDS011;27615;51.826;5.692;2022-09-14T00:24:06;1.27;;;0.50;;
41925;SDS011;27615;51.826;5.692;2022-09-14T00:26:41;2.83;;;0.73;;
41925;SDS011;27615;51.826;5.692;2022-09-14T00:29:06;2.85;;;0.47;;
41925;SDS011;27615;51.826;5.692;2022-09-14T00:31:33;3.83;;;0.55;;
41925;SDS011;27615;51.826;5.692;2022-09-14T00:34:00;2.97;;;0.50;;
41925;SDS011;27615;51.826;5.692;2022-09-14T00:36:27;1.70;;;0.77;;
41925;SDS011;27615;51.826;5.692;2022-09-14T00:38:54;1.90;;;0.60;;
41925;SDS011;27615;51.826;5.692;2022-09-14T00:41:28;2.83;;;0.50;;
41925;SDS011;27615;51.826;5.692;2022-09-14T00:46:26;3.10;;;0.55;;
41925;SDS011;27615;51.826;5.692;2022-09-14T00:48:56;3.88;;;0.65;;
41925;SDS011;27615;51.826;5.692;2022-09-14T00:51:24;3.25;;;0.50;;
41925;SDS011;27615;51.826;5.692;2022-09-14T00:53:50;4.32;;;0.50;;
41925;SDS011;27615;51.826;5.692;2022-09-14T00:56:16;3.80;;;0.50;;
41925;SDS011;27615;51.826;5.692;2022-09-14T00:58:43;3.35;;;0.57;;
41925;SDS011;27615;51.826;5.692;2022-09-14T01:01:14;5.82;;;0.73;;
41925;SDS011;27615;51.826;5.692;2022-09-14T01:03:42;2.60;;;0.65;;
41925;SDS011;27615;51.826;5.692;2022-09-14T01:12:19;1.45;;;0.47;;
41925;SDS011;27615;51.826;5.692;2022-09-14T01:14:58;3.25;;;0.40;;
41925;SDS011;27615;51.826;5.692;2022-09-14T01:20:40;1.75;;;0.50;;
41925;SDS011;27615;51.826;5.692;2022-09-14T01:29:19;4.03;;;0.50;;
41925;SDS011;27615;51.826;5.692;2022-09-14T01:32:31;1.83;;;0.40;;
41925;SDS011;27615;51.826;5.692;2022-09-14T01:34:58;3.40;;;0.40;;
41925;SDS011;27615;51.826;5.692;2022-09-14T01:40:17;2.70;;;0.50;;
41925;SDS011;27615;51.826;5.692;2022-09-14T01:45:56;3.28;;;0.40;;
41925;SDS011;27615;51.826;5.692;2022-09-14T01:48:26;2.50;;;1.03;;
41925;SDS011;27615;51.826;5.692;2022-09-14T01:50:58;3.25;;;0.60;;
41925;SDS011;27615;51.826;5.692;2022-09-14T01:53:31;3.25;;;0.60;;
41925;SDS011;27615;51.826;5.692;2022-09-14T02:01:12;4.57;;;0.90;;
41925;SDS011;27615;51.826;5.692;2022-09-14T02:03:45;3.47;;;0.50;;
41925;SDS011;27615;51.826;5.692;2022-09-14T02:08:48;2.78;;;0.50;;
41925;SDS011;27615;51.826;5.692;2022-09-14T02:11:17;2.92;;;0.47;;
41925;SDS011;27615;51.826;5.692;2022-09-14T02:13:43;5.88;;;0.77;;
41925;SDS011;27615;51.826;5.692;2022-09-14T02:16:11;3.28;;;0.57;;
41925;SDS011;27615;51.826;5.692;2022-09-14T02:18:37;1.85;;;0.40;;
41925;SDS011;27615;51.826;5.692;2022-09-14T02:21:05;2.53;;;0.60;;
41925;SDS011;27615;51.826;5.692;2022-09-14T02:23:38;1.55;;;0.40;;
41925;SDS011;27615;51.826;5.692;2022-09-14T02:26:04;3.38;;;0.40;;
41925;SDS011;27615;51.826;5.692;2022-09-14T02:28:30;2.95;;;0.50;;
41925;SDS011;27615;51.826;5.692;2022-09-14T02:31:13;2.08;;;0.63;;
41925;SDS011;27615;51.826;5.692;2022-09-14T02:33:53;3.70;;;0.52;;
41925;SDS011;27615;51.826;5.692;2022-09-14T02:36:28;3.25;;;0.40;;
41925;SDS011;27615;51.826;5.692;2022-09-14T02:45:33;6.10;;;0.93;;
41925;SDS011;27615;51.826;5.692;2022-09-14T02:54:03;3.35;;;0.68;;
41925;SDS011;27615;51.826;5.692;2022-09-14T02:56:40;4.40;;;0.60;;
41925;SDS011;27615;51.826;5.692;2022-09-14T02:59:05;3.50;;;0.68;;
41925;SDS011;27615;51.826;5.692;2022-09-14T03:01:31;2.35;;;0.57;;
41925;SDS011;27615;51.826;5.692;2022-09-14T03:04:03;2.00;;;0.80;;
41925;SDS011;27615;51.826;5.692;2022-09-14T03:06:38;2.75;;;0.52;;
41925;SDS011;27615;51.826;5.692;2022-09-14T03:09:03;1.98;;;0.55;;
41925;SDS011;27615;51.826;5.692;2022-09-14T03:11:29;2.80;;;0.52;;
41925;SDS011;27615;51.826;5.692;2022-09-14T03:13:55;2.60;;;0.50;;
41925;SDS011;27615;51.826;5.692;2022-09-14T03:16:20;5.43;;;0.60;;
41925;SDS011;27615;51.826;5.692;2022-09-14T03:18:46;5.13;;;0.80;;
41925;SDS011;27615;51.826;5.692;2022-09-14T03:21:12;3.80;;;0.80;;
41925;SDS011;27615;51.826;5.692;2022-09-14T03:23:51;2.58;;;0.50;;
41925;SDS011;27615;51.826;5.692;2022-09-14T03:26:25;1.58;;;0.47;;
41925;SDS011;27615;51.826;5.692;2022-09-14T03:28:56;1.75;;;0.40;;
41925;SDS011;27615;51.826;5.692;2022-09-14T03:31:23;1.95;;;0.40;;
41925;SDS011;27615;51.826;5.692;2022-09-14T03:33:53;2.35;;;0.40;;
41925;SDS011;27615;51.826;5.692;2022-09-14T03:36:23;2.90;;;0.40;;
41925;SDS011;27615;51.826;5.692;2022-09-14T03:38:58;2.45;;;0.47;;
41925;SDS011;27615;51.826;5.692;2022-09-14T03:41:31;2.35;;;0.40;;
41925;SDS011;27615;51.826;5.692;2022-09-14T03:44:04;1.42;;;0.32;;
41925;SDS011;27615;51.826;5.692;2022-09-14T03:46:39;2.83;;;0.43;;
41925;SDS011;27615;51.826;5.692;2022-09-14T03:49:08;2.78;;;0.35;;
41925;SDS011;27615;51.826;5.692;2022-09-14T03:51:33;2.92;;;1.15;;
41925;SDS011;27615;51.826;5.692;2022-09-14T03:53:59;2.33;;;0.43;;
41925;SDS011;27615;51.826;5.692;2022-09-14T03:56:25;3.20;;;0.40;;
41925;SDS011;27615;51.826;5.692;2022-09-14T03:58:50;0.90;;;0.40;;
41925;SDS011;27615;51.826;5.692;2022-09-14T04:01:17;1.92;;;0.40;;
41925;SDS011;27615;51.826;5.692;2022-09-14T04:03:44;3.17;;;0.50;;
41925;SDS011;27615;51.826;5.692;2022-09-14T04:06:10;2.17;;;0.40;;
41925;SDS011;27615;51.826;5.692;2022-09-14T04:08:37;2.05;;;0.40;;
41925;SDS011;27615;51.826;5.692;2022-09-14T04:11:12;3.03;;;0.40;;
41925;SDS011;27615;51.826;5.692;2022-09-14T04:13:43;1.88;;;0.30;;
41925;SDS011;27615;51.826;5.692;2022-09-14T04:16:09;1.25;;;0.30;;
41925;SDS011;27615;51.826;5.692;2022-09-14T04:18:35;1.88;;;0.40;;
41925;SDS011;27615;51.826;5.692;2022-09-14T04:21:02;1.63;;;0.30;;
41925;SDS011;27615;51.826;5.692;2022-09-14T04:23:30;0.77;;;0.38;;
41925;SDS011;27615;51.826;5.692;2022-09-14T04:25:56;1.73;;;0.30;;
41925;SDS011;27615;51.826;5.692;2022-09-14T04:28:21;1.38;;;0.40;;
41925;SDS011;27615;51.826;5.692;2022-09-14T04:30:55;2.67;;;0.40;;
41925;SDS011;27615;51.826;5.692;2022-09-14T04:33:24;3.10;;;0.43;;
41925;SDS011;27615;51.826;5.692;2022-09-14T04:35:56;1.20;;;0.50;;
41925;SDS011;27615;51.826;5.692;2022-09-14T04:38:31;1.30;;;0.30;;
41925;SDS011;27615;51.826;5.692;2022-09-14T04:40:57;1.88;;;0.40;;
41925;SDS011;27615;51.826;5.692;2022-09-14T04:43:24;6.55;;;0.57;;
41925;SDS011;27615;51.826;5.692;2022-09-14T04:46:04;2.15;;;0.85;;
41925;SDS011;27615;51.826;5.692;2022-09-14T04:48:31;3.13;;;0.60;;
41925;SDS011;27615;51.826;5.692;2022-09-14T04:51:02;1.80;;;0.60;;
41925;SDS011;27615;51.826;5.692;2022-09-14T04:53:32;1.42;;;0.50;;
41925;SDS011;27615;51.826;5.692;2022-09-14T04:56:03;2.65;;;0.60;;
41925;SDS011;27615;51.826;5.692;2022-09-14T04:58:47;1.85;;;0.57;;
41925;SDS011;27615;51.826;5.692;2022-09-14T05:01:15;2.50;;;0.70;;
41925;SDS011;27615;51.826;5.692;2022-09-14T05:03:43;1.05;;;0.40;;
41925;SDS011;27615;51.826;5.692;2022-09-14T05:06:13;1.25;;;0.40;;
41925;SDS011;27615;51.826;5.692;2022-09-14T05:08:41;2.33;;;0.60;;
41925;SDS011;27615;51.826;5.692;2022-09-14T05:11:09;1.30;;;0.40;;
41925;SDS011;27615;51.826;5.692;2022-09-14T05:16:10;1.33;;;0.50;;
41925;SDS011;27615;51.826;5.692;2022-09-14T05:18:39;2.50;;;0.50;;
41925;SDS011;27615;51.826;5.692;2022-09-14T05:21:06;1.52;;;0.60;;
41925;SDS011;27615;51.826;5.692;2022-09-14T05:23:33;2.53;;;0.40;;
41925;SDS011;27615;51.826;5.692;2022-09-14T05:25:59;1.95;;;0.60;;
41925;SDS011;27615;51.826;5.692;2022-09-14T05:28:25;1.80;;;0.40;;
41925;SDS011;27615;51.826;5.692;2022-09-14T05:30:51;1.02;;;0.40;;
41925;SDS011;27615;51.826;5.692;2022-09-14T05:33:27;1.35;;;0.55;;
41925;SDS011;27615;51.826;5.692;2022-09-14T05:35:52;2.60;;;0.40;;
41925;SDS011;27615;51.826;5.692;2022-09-14T05:38:26;1.75;;;0.57;;
41925;SDS011;27615;51.826;5.692;2022-09-14T05:41:01;1.65;;;0.50;;
41925;SDS011;27615;51.826;5.692;2022-09-14T05:43:27;1.67;;;0.40;;
41925;SDS011;27615;51.826;5.692;2022-09-14T05:45:53;1.70;;;0.60;;
41925;SDS011;27615;51.826;5.692;2022-09-14T05:48:19;3.45;;;0.65;;
41925;SDS011;27615;51.826;5.692;2022-09-14T05:50:45;2.40;;;0.70;;
41925;SDS011;27615;51.826;5.692;2022-09-14T05:53:10;2.90;;;0.60;;
41925;SDS011;27615;51.826;5.692;2022-09-14T05:55:36;3.05;;;0.77;;
41925;SDS011;27615;51.826;5.692;2022-09-14T05:58:02;1.25;;;0.60;;
41925;SDS011;27615;51.826;5.692;2022-09-14T06:00:29;3.67;;;0.80;;
41925;SDS011;27615;51.826;5.692;2022-09-14T06:03:06;3.22;;;0.57;;
41925;SDS011;27615;51.826;5.692;2022-09-14T06:05:31;2.00;;;0.60;;
41925;SDS011;27615;51.826;5.692;2022-09-14T06:07:59;3.22;;;0.70;;
41925;SDS011;27615;51.826;5.692;2022-09-14T06:10:25;2.45;;;0.65;;
41925;SDS011;27615;51.826;5.692;2022-09-14T06:12:53;3.13;;;0.60;;
41925;SDS011;27615;51.826;5.692;2022-09-14T06:15:18;2.67;;;0.77;;
41925;SDS011;27615;51.826;5.692;2022-09-14T06:17:44;2.03;;;0.77;;
41925;SDS011;27615;51.826;5.692;2022-09-14T06:20:19;1.70;;;0.90;;
41925;SDS011;27615;51.826;5.692;2022-09-14T06:22:50;2.97;;;0.70;;
41925;SDS011;27615;51.826;5.692;2022-09-14T06:25:17;1.90;;;0.80;;
41925;SDS011;27615;51.826;5.692;2022-09-14T06:27:44;2.80;;;0.73;;
41925;SDS011;27615;51.826;5.692;2022-09-14T06:30:10;2.95;;;1.20;;
41925;SDS011;27615;51.826;5.692;2022-09-14T06:32:36;2.05;;;0.88;;
41925;SDS011;27615;51.826;5.692;2022-09-14T06:35:02;2.40;;;0.88;;
41925;SDS011;27615;51.826;5.692;2022-09-14T06:37:28;5.93;;;0.80;;
41925;SDS011;27615;51.826;5.692;2022-09-14T06:39:53;3.42;;;0.93;;
41925;SDS011;27615;51.826;5.692;2022-09-14T06:42:19;4.50;;;0.93;;
41925;SDS011;27615;51.826;5.692;2022-09-14T06:44:46;2.60;;;0.98;;
41925;SDS011;27615;51.826;5.692;2022-09-14T06:47:11;3.80;;;1.00;;
41925;SDS011;27615;51.826;5.692;2022-09-14T06:49:37;3.50;;;1.10;;
41925;SDS011;27615;51.826;5.692;2022-09-14T06:52:02;3.25;;;1.35;;
41925;SDS011;27615;51.826;5.692;2022-09-14T06:54:28;2.83;;;1.02;;
41925;SDS011;27615;51.826;5.692;2022-09-14T06:56:57;2.92;;;0.82;;
41925;SDS011;27615;51.826;5.692;2022-09-14T06:59:33;3.55;;;1.40;;
41925;SDS011;27615;51.826;5.692;2022-09-14T07:01:58;4.00;;;0.98;;
41925;SDS011;27615;51.826;5.692;2022-09-14T07:04:24;4.93;;;1.40;;
41925;SDS011;27615;51.826;5.692;2022-09-14T07:06:50;4.00;;;1.15;;
41925;SDS011;27615;51.826;5.692;2022-09-14T07:09:16;3.65;;;1.10;;
41925;SDS011;27615;51.826;5.692;2022-09-14T07:11:43;4.65;;;0.90;;
41925;SDS011;27615;51.826;5.692;2022-09-14T07:14:09;3.95;;;1.10;;
41925;SDS011;27615;51.826;5.692;2022-09-14T07:16:35;3.72;;;1.13;;
41925;SDS011;27615;51.826;5.692;2022-09-14T07:19:03;5.22;;;1.00;;
41925;SDS011;27615;51.826;5.692;2022-09-14T07:21:31;4.03;;;1.45;;
41925;SDS011;27615;51.826;5.692;2022-09-14T07:23:59;3.00;;;0.82;;
41925;SDS011;27615;51.826;5.692;2022-09-14T07:26:32;2.83;;;1.00;;
41925;SDS011;27615;51.826;5.692;2022-09-14T07:29:04;3.03;;;0.80;;
41925;SDS011;27615;51.826;5.692;2022-09-14T07:31:32;6.57;;;1.40;;
41925;SDS011;27615;51.826;5.692;2022-09-14T07:34:08;2.83;;;1.13;;
41925;SDS011;27615;51.826;5.692;2022-09-14T07:36:35;2.90;;;1.10;;
41925;SDS011;27615;51.826;5.692;2022-09-14T07:39:03;2.72;;;1.00;;
41925;SDS011;27615;51.826;5.692;2022-09-14T07:41:30;4.30;;;1.38;;
41925;SDS011;27615;51.826;5.692;2022-09-14T07:43:58;6.40;;;1.67;;
41925;SDS011;27615;51.826;5.692;2022-09-14T07:46:25;2.97;;;0.85;;
41925;SDS011;27615;51.826;5.692;2022-09-14T07:48:55;3.60;;;0.93;;
41925;SDS011;27615;51.826;5.692;2022-09-14T07:51:23;2.15;;;0.90;;
41925;SDS011;27615;51.826;5.692;2022-09-14T07:53:49;3.38;;;1.20;;
41925;SDS011;27615;51.826;5.692;2022-09-14T07:56:15;4.88;;;1.10;;
41925;SDS011;27615;51.826;5.692;2022-09-14T07:58:41;2.75;;;1.00;;
41925;SDS011;27615;51.826;5.692;2022-09-14T08:01:12;3.55;;;1.45;;
41925;SDS011;27615;51.826;5.692;2022-09-14T08:03:40;4.38;;;1.70;;
41925;SDS011;27615;51.826;5.692;2022-09-14T08:06:14;3.75;;;0.98;;
41925;SDS011;27615;51.826;5.692;2022-09-14T08:08:43;2.42;;;1.02;;
41925;SDS011;27615;51.826;5.692;2022-09-14T08:16:06;2.95;;;0.85;;
41925;SDS011;27615;51.826;5.692;2022-09-14T08:18:33;4.22;;;1.30;;
41925;SDS011;27615;51.826;5.692;2022-09-14T08:21:03;1.98;;;1.10;;
41925;SDS011;27615;51.826;5.692;2022-09-14T08:23:31;3.45;;;1.08;;
41925;SDS011;27615;51.826;5.692;2022-09-14T08:26:01;3.85;;;1.13;;
41925;SDS011;27615;51.826;5.692;2022-09-14T08:28:56;2.23;;;1.10;;
41925;SDS011;27615;51.826;5.692;2022-09-14T08:31:25;2.17;;;1.05;;
41925;SDS011;27615;51.826;5.692;2022-09-14T08:33:52;4.35;;;1.17;;
41925;SDS011;27615;51.826;5.692;2022-09-14T08:36:20;3.53;;;1.20;;
41925;SDS011;27615;51.826;5.692;2022-09-14T08:38:47;2.05;;;1.20;;
41925;SDS011;27615;51.826;5.692;2022-09-14T08:41:27;3.60;;;1.08;;
41925;SDS011;27615;51.826;5.692;2022-09-14T08:43:53;2.08;;;0.88;;
41925;SDS011;27615;51.826;5.692;2022-09-14T08:46:27;5.07;;;1.20;;
41925;SDS011;27615;51.826;5.692;2022-09-14T08:49:02;3.00;;;1.00;;
41925;SDS011;27615;51.826;5.692;2022-09-14T08:51:35;4.68;;;1.13;;
41925;SDS011;27615;51.826;5.692;2022-09-14T08:54:03;4.25;;;1.33;;
41925;SDS011;27615;51.826;5.692;2022-09-14T08:56:34;2.33;;;1.00;;
41925;SDS011;27615;51.826;5.692;2022-09-14T08:59:21;4.03;;;1.30;;
41925;SDS011;27615;51.826;5.692;2022-09-14T09:04:50;2.10;;;0.98;;
41925;SDS011;27615;51.826;5.692;2022-09-14T09:09:58;3.78;;;1.42;;
41925;SDS011;27615;51.826;5.692;2022-09-14T09:12:37;3.13;;;1.25;;
41925;SDS011;27615;51.826;5.692;2022-09-14T09:15:49;5.00;;;2.38;;
41925;SDS011;27615;51.826;5.692;2022-09-14T09:18:15;3.10;;;1.90;;
41925;SDS011;27615;51.826;5.692;2022-09-14T09:21:01;3.35;;;1.48;;
41925;SDS011;27615;51.826;5.692;2022-09-14T09:23:33;4.00;;;1.02;;
41925;SDS011;27615;51.826;5.692;2022-09-14T09:28:28;3.08;;;1.83;;
41925;SDS011;27615;51.826;5.692;2022-09-14T09:30:56;3.28;;;1.73;;
41925;SDS011;27615;51.826;5.692;2022-09-14T09:33:24;3.63;;;1.88;;
41925;SDS011;27615;51.826;5.692;2022-09-14T09:35:52;2.38;;;1.52;;
41925;SDS011;27615;51.826;5.692;2022-09-14T09:38:19;4.18;;;1.23;;
41925;SDS011;27615;51.826;5.692;2022-09-14T09:40:56;9.90;;;2.22;;
41925;SDS011;27615;51.826;5.692;2022-09-14T09:44:02;2.42;;;1.52;;
41925;SDS011;27615;51.826;5.692;2022-09-14T09:46:37;4.47;;;1.10;;
41925;SDS011;27615;51.826;5.692;2022-09-14T09:49:19;6.03;;;1.73;;
41925;SDS011;27615;51.826;5.692;2022-09-14T09:51:50;3.15;;;0.90;;
41925;SDS011;27615;51.826;5.692;2022-09-14T09:54:25;2.22;;;0.70;;
41925;SDS011;27615;51.826;5.692;2022-09-14T09:56:56;2.47;;;0.70;;
41925;SDS011;27615;51.826;5.692;2022-09-14T09:59:36;1.98;;;0.70;;
41925;SDS011;27615;51.826;5.692;2022-09-14T10:04:55;5.93;;;1.17;;
41925;SDS011;27615;51.826;5.692;2022-09-14T10:07:26;3.05;;;1.25;;
41925;SDS011;27615;51.826;5.692;2022-09-14T10:09:59;3.30;;;0.70;;
41925;SDS011;27615;51.826;5.692;2022-09-14T10:12:25;3.85;;;0.80;;
41925;SDS011;27615;51.826;5.692;2022-09-14T10:15:02;5.50;;;0.77;;
41925;SDS011;27615;51.826;5.692;2022-09-14T10:20:19;1.17;;;0.52;;
41925;SDS011;27615;51.826;5.692;2022-09-14T10:22:47;1.13;;;0.50;;
41925;SDS011;27615;51.826;5.692;2022-09-14T10:27:39;2.97;;;0.93;;
41925;SDS011;27615;51.826;5.692;2022-09-14T10:30:14;2.28;;;1.00;;
41925;SDS011;27615;51.826;5.692;2022-09-14T10:33:02;2.38;;;0.50;;
41925;SDS011;27615;51.826;5.692;2022-09-14T10:38:21;3.80;;;0.60;;
41925;SDS011;27615;51.826;5.692;2022-09-14T10:40:49;1.98;;;0.50;;
41925;SDS011;27615;51.826;5.692;2022-09-14T10:46:44;2.20;;;0.50;;
41925;SDS011;27615;51.826;5.692;2022-09-14T10:49:20;3.28;;;1.35;;
41925;SDS011;27615;51.826;5.692;2022-09-14T10:52:19;2.28;;;0.70;;
41925;SDS011;27615;51.826;5.692;2022-09-14T10:55:18;1.13;;;0.50;;
41925;SDS011;27615;51.826;5.692;2022-09-14T11:00:31;1.55;;;0.60;;
41925;SDS011;27615;51.826;5.692;2022-09-14T11:08:58;2.83;;;0.70;;
41925;SDS011;27615;51.826;5.692;2022-09-14T11:14:28;1.15;;;0.60;;
41925;SDS011;27615;51.826;5.692;2022-09-14T11:17:29;2.42;;;0.60;;
41925;SDS011;27615;51.826;5.692;2022-09-14T11:28:48;3.00;;;0.80;;
41925;SDS011;27615;51.826;5.692;2022-09-14T11:31:20;1.40;;;0.73;;
41925;SDS011;27615;51.826;5.692;2022-09-14T11:37:03;1.25;;;0.55;;
41925;SDS011;27615;51.826;5.692;2022-09-14T11:39:38;2.65;;;0.80;;
41925;SDS011;27615;51.826;5.692;2022-09-14T11:42:13;1.08;;;0.68;;
41925;SDS011;27615;51.826;5.692;2022-09-14T11:44:44;1.88;;;0.57;;
41925;SDS011;27615;51.826;5.692;2022-09-14T11:47:17;5.38;;;1.35;;
41925;SDS011;27615;51.826;5.692;2022-09-14T11:52:34;2.97;;;0.80;;
41925;SDS011;27615;51.826;5.692;2022-09-14T11:55:01;2.55;;;0.63;;
41925;SDS011;27615;51.826;5.692;2022-09-14T11:57:33;2.05;;;0.73;;
41925;SDS011;27615;51.826;5.692;2022-09-14T12:01:01;3.25;;;0.88;;
41925;SDS011;27615;51.826;5.692;2022-09-14T12:03:21;4.40;;;0.70;;
41925;SDS011;27615;51.826;5.692;2022-09-14T12:08:54;0.95;;;0.52;;
41925;SDS011;27615;51.826;5.692;2022-09-14T12:11:50;2.67;;;1.15;;
41925;SDS011;27615;51.826;5.692;2022-09-14T12:19:50;1.98;;;0.60;;
41925;SDS011;27615;51.826;5.692;2022-09-14T12:24:59;1.67;;;0.50;;
41925;SDS011;27615;51.826;5.692;2022-09-14T12:27:45;1.77;;;0.90;;
41925;SDS011;27615;51.826;5.692;2022-09-14T12:33:00;1.88;;;0.63;;
41925;SDS011;27615;51.826;5.692;2022-09-14T12:35:35;3.50;;;0.50;;
41925;SDS011;27615;51.826;5.692;2022-09-14T12:46:08;2.47;;;0.80;;
41925;SDS011;27615;51.826;5.692;2022-09-14T12:57:08;1.83;;;0.70;;
41925;SDS011;27615;51.826;5.692;2022-09-14T13:02:40;1.42;;;0.63;;
41925;SDS011;27615;51.826;5.692;2022-09-14T13:05:21;2.03;;;0.67;;
41925;SDS011;27615;51.826;5.692;2022-09-14T13:07:49;4.55;;;1.05;;
41925;SDS011;27615;51.826;5.692;2022-09-14T13:10:21;2.60;;;1.05;;
41925;SDS011;27615;51.826;5.692;2022-09-14T13:12:55;3.65;;;1.42;;
41925;SDS011;27615;51.826;5.692;2022-09-14T13:15:24;2.90;;;1.00;;
41925;SDS011;27615;51.826;5.692;2022-09-14T13:20:27;1.70;;;0.80;;
41925;SDS011;27615;51.826;5.692;2022-09-14T13:22:54;1.80;;;0.70;;
41925;SDS011;27615;51.826;5.692;2022-09-14T13:28:12;3.90;;;1.00;;
41925;SDS011;27615;51.826;5.692;2022-09-14T13:30:40;2.35;;;1.10;;
41925;SDS011;27615;51.826;5.692;2022-09-14T13:33:14;2.63;;;1.10;;
41925;SDS011;27615;51.826;5.692;2022-09-14T13:35:49;1.83;;;0.68;;
41925;SDS011;27615;51.826;5.692;2022-09-14T13:38:23;2.88;;;1.15;;
41925;SDS011;27615;51.826;5.692;2022-09-14T13:40:53;3.35;;;1.67;;
41925;SDS011;27615;51.826;5.692;2022-09-14T13:43:26;3.67;;;0.90;;
41925;SDS011;27615;51.826;5.692;2022-09-14T13:45:52;4.53;;;1.08;;
41925;SDS011;27615;51.826;5.692;2022-09-14T13:48:18;3.42;;;0.90;;
41925;SDS011;27615;51.826;5.692;2022-09-14T13:50:49;3.42;;;1.05;;
41925;SDS011;27615;51.826;5.692;2022-09-14T13:56:18;2.58;;;0.70;;
41925;SDS011;27615;51.826;5.692;2022-09-14T13:59:31;3.78;;;1.30;;
41925;SDS011;27615;51.826;5.692;2022-09-14T14:01:57;2.97;;;1.05;;
41925;SDS011;27615;51.826;5.692;2022-09-14T14:04:28;6.43;;;1.50;;
41925;SDS011;27615;51.826;5.692;2022-09-14T14:09:42;3.53;;;0.80;;
41925;SDS011;27615;51.826;5.692;2022-09-14T14:12:11;2.58;;;0.82;;
41925;SDS011;27615;51.826;5.692;2022-09-14T14:14:51;2.38;;;0.70;;
41925;SDS011;27615;51.826;5.692;2022-09-14T14:19:47;2.67;;;0.90;;
41925;SDS011;27615;51.826;5.692;2022-09-14T14:24:42;3.30;;;1.33;;
41925;SDS011;27615;51.826;5.692;2022-09-14T14:27:29;2.35;;;1.13;;
41925;SDS011;27615;51.826;5.692;2022-09-14T14:29:56;4.38;;;0.95;;
41925;SDS011;27615;51.826;5.692;2022-09-14T14:32:22;1.48;;;0.70;;
41925;SDS011;27615;51.826;5.692;2022-09-14T14:34:48;2.00;;;0.90;;
41925;SDS011;27615;51.826;5.692;2022-09-14T14:37:16;2.53;;;1.00;;
41925;SDS011;27615;51.826;5.692;2022-09-14T14:39:42;3.75;;;1.48;;
41925;SDS011;27615;51.826;5.692;2022-09-14T14:42:08;3.05;;;1.65;;
41925;SDS011;27615;51.826;5.692;2022-09-14T14:44:34;4.10;;;1.25;;
41925;SDS011;27615;51.826;5.692;2022-09-14T14:47:00;2.45;;;0.80;;
41925;SDS011;27615;51.826;5.692;2022-09-14T14:49:25;2.67;;;1.13;;
41925;SDS011;27615;51.826;5.692;2022-09-14T14:51:51;5.25;;;1.60;;
41925;SDS011;27615;51.826;5.692;2022-09-14T14:54:17;3.42;;;1.30;;
41925;SDS011;27615;51.826;5.692;2022-09-14T14:56:47;3.00;;;1.00;;
41925;SDS011;27615;51.826;5.692;2022-09-14T15:01:49;4.45;;;0.95;;
41925;SDS011;27615;51.826;5.692;2022-09-14T15:04:17;2.60;;;0.80;;
41925;SDS011;27615;51.826;5.692;2022-09-14T15:06:43;5.60;;;1.98;;
41925;SDS011;27615;51.826;5.692;2022-09-14T15:09:17;6.00;;;2.28;;
41925;SDS011;27615;51.826;5.692;2022-09-14T15:11:47;3.75;;;1.40;;
41925;SDS011;27615;51.826;5.692;2022-09-14T15:14:15;3.97;;;1.58;;
41925;SDS011;27615;51.826;5.692;2022-09-14T15:16:45;4.13;;;1.17;;
41925;SDS011;27615;51.826;5.692;2022-09-14T15:19:10;4.57;;;1.88;;
41925;SDS011;27615;51.826;5.692;2022-09-14T15:21:36;3.05;;;1.00;;
41925;SDS011;27615;51.826;5.692;2022-09-14T15:24:03;3.25;;;0.95;;
41925;SDS011;27615;51.826;5.692;2022-09-14T15:26:29;2.38;;;0.88;;
41925;SDS011;27615;51.826;5.692;2022-09-14T15:28:54;5.72;;;2.10;;
41925;SDS011;27615;51.826;5.692;2022-09-14T15:31:20;4.72;;;1.88;;
41925;SDS011;27615;51.826;5.692;2022-09-14T15:33:46;4.32;;;1.38;;
41925;SDS011;27615;51.826;5.692;2022-09-14T15:36:12;2.72;;;0.88;;
41925;SDS011;27615;51.826;5.692;2022-09-14T15:38:37;3.05;;;1.02;;
41925;SDS011;27615;51.826;5.692;2022-09-14T15:41:03;2.78;;;0.98;;
41925;SDS011;27615;51.826;5.692;2022-09-14T15:43:29;3.45;;;1.33;;
41925;SDS011;27615;51.826;5.692;2022-09-14T15:45:59;3.20;;;1.17;;
41925;SDS011;27615;51.826;5.692;2022-09-14T15:48:26;2.65;;;1.20;;
41925;SDS011;27615;51.826;5.692;2022-09-14T15:50:51;2.17;;;0.90;;
41925;SDS011;27615;51.826;5.692;2022-09-14T15:53:17;2.40;;;0.75;;
41925;SDS011;27615;51.826;5.692;2022-09-14T15:55:43;2.28;;;0.63;;
41925;SDS011;27615;51.826;5.692;2022-09-14T15:58:10;3.90;;;1.23;;
41925;SDS011;27615;51.826;5.692;2022-09-14T16:00:36;4.32;;;1.50;;
41925;SDS011;27615;51.826;5.692;2022-09-14T16:03:05;3.42;;;1.70;;
41925;SDS011;27615;51.826;5.692;2022-09-14T16:05:31;3.95;;;1.30;;
41925;SDS011;27615;51.826;5.692;2022-09-14T16:08:06;3.22;;;1.33;;
41925;SDS011;27615;51.826;5.692;2022-09-14T16:10:32;4.82;;;0.90;;
41925;SDS011;27615;51.826;5.692;2022-09-14T16:12:58;3.05;;;0.90;;
41925;SDS011;27615;51.826;5.692;2022-09-14T16:15:23;2.60;;;0.70;;
41925;SDS011;27615;51.826;5.692;2022-09-14T16:17:50;3.55;;;1.20;;
41925;SDS011;27615;51.826;5.692;2022-09-14T16:20:16;4.18;;;0.95;;
41925;SDS011;27615;51.826;5.692;2022-09-14T16:22:43;4.18;;;1.20;;
41925;SDS011;27615;51.826;5.692;2022-09-14T16:25:09;6.13;;;1.00;;
41925;SDS011;27615;51.826;5.692;2022-09-14T16:27:35;6.72;;;1.40;;
41925;SDS011;27615;51.826;5.692;2022-09-14T16:30:00;5.07;;;1.10;;
41925;SDS011;27615;51.826;5.692;2022-09-14T16:32:26;4.32;;;1.27;;
41925;SDS011;27615;51.826;5.692;2022-09-14T16:34:51;4.38;;;1.45;;
41925;SDS011;27615;51.826;5.692;2022-09-14T16:37:17;5.38;;;1.13;;
41925;SDS011;27615;51.826;5.692;2022-09-14T16:39:42;4.30;;;1.60;;
41925;SDS011;27615;51.826;5.692;2022-09-14T16:42:08;3.83;;;1.02;;
41925;SDS011;27615;51.826;5.692;2022-09-14T16:44:34;4.82;;;1.60;;
41925;SDS011;27615;51.826;5.692;2022-09-14T16:46:59;5.65;;;1.15;;
41925;SDS011;27615;51.826;5.692;2022-09-14T16:49:25;7.90;;;1.40;;
41925;SDS011;27615;51.826;5.692;2022-09-14T16:51:51;3.78;;;1.25;;
41925;SDS011;27615;51.826;5.692;2022-09-14T16:54:18;4.03;;;1.20;;
41925;SDS011;27615;51.826;5.692;2022-09-14T16:56:46;6.20;;;1.67;;
41925;SDS011;27615;51.826;5.692;2022-09-14T16:59:12;3.08;;;1.20;;
41925;SDS011;27615;51.826;5.692;2022-09-14T17:01:39;3.95;;;1.45;;
41925;SDS011;27615;51.826;5.692;2022-09-14T17:04:07;3.50;;;1.63;;
41925;SDS011;27615;51.826;5.692;2022-09-14T17:06:36;6.65;;;1.80;;
41925;SDS011;27615;51.826;5.692;2022-09-14T17:09:04;4.82;;;1.77;;
41925;SDS011;27615;51.826;5.692;2022-09-14T17:11:37;4.72;;;1.52;;
41925;SDS011;27615;51.826;5.692;2022-09-14T17:14:06;6.38;;;1.42;;
41925;SDS011;27615;51.826;5.692;2022-09-14T17:16:32;4.00;;;1.45;;
41925;SDS011;27615;51.826;5.692;2022-09-14T17:18:59;2.88;;;1.15;;
41925;SDS011;27615;51.826;5.692;2022-09-14T17:21:28;3.65;;;1.55;;
41925;SDS011;27615;51.826;5.692;2022-09-14T17:23:55;3.50;;;1.80;;
41925;SDS011;27615;51.826;5.692;2022-09-14T17:26:21;4.32;;;1.73;;
41925;SDS011;27615;51.826;5.692;2022-09-14T17:28:48;4.63;;;1.83;;
41925;SDS011;27615;51.826;5.692;2022-09-14T17:31:22;4.47;;;1.70;;
41925;SDS011;27615;51.826;5.692;2022-09-14T17:33:50;3.53;;;1.75;;
41925;SDS011;27615;51.826;5.692;2022-09-14T17:36:17;4.32;;;1.38;;
41925;SDS011;27615;51.826;5.692;2022-09-14T17:38:42;4.72;;;2.03;;